createdAt,value
2018-04-18T00:01:33.178Z,99.90
2018-04-18T00:04:03.985Z,99.90
2018-04-18T00:06:35.154Z,99.90
2018-04-18T00:09:07.319Z,99.90
2018-04-18T00:11:39.350Z,99.90
2018-04-18T00:14:10.599Z,99.90
2018-04-18T00:16:41.855Z,99.90
2018-04-18T00:19:13.714Z,99.90
2018-04-18T00:21:44.876Z,99.90
2018-04-18T00:24:15.977Z,99.90
2018-04-18T00:26:46.813Z,99.90
2018-04-18T00:29:18.152Z,99.90
2018-04-18T00:31:48.963Z,99.90
2018-04-18T00:34:19.651Z,99.90
2018-04-18T00:36:50.465Z,99.90
2018-04-18T00:39:21.015Z,99.90
2018-04-18T00:41:51.917Z,99.90
2018-04-18T00:44:23.466Z,99.90
2018-04-18T00:46:54.635Z,99.90
2018-04-18T00:49:25.358Z,99.90
2018-04-18T00:51:57.473Z,99.90
2018-04-18T00:54:28.601Z,99.90
2018-04-18T00:56:59.972Z,99.90
2018-04-18T00:59:30.806Z,99.90
2018-04-18T01:02:01.796Z,99.90
2018-04-18T01:04:32.694Z,99.90
2018-04-18T01:07:03.399Z,99.90
2018-04-18T01:09:34.551Z,99.90
2018-04-18T01:12:05.638Z,99.90
2018-04-18T01:14:36.734Z,99.90
2018-04-18T01:17:08.203Z,99.90
2018-04-18T01:19:39.237Z,99.90
2018-04-18T01:22:10.053Z,99.90
2018-04-18T01:24:40.590Z,99.90
2018-04-18T01:27:11.723Z,99.90
2018-04-18T01:29:42.488Z,99.90
2018-04-18T01:32:13.113Z,99.90
2018-04-18T01:34:44.555Z,99.90
2018-04-18T01:37:15.280Z,99.90
2018-04-18T01:39:46.245Z,99.90
2018-04-18T01:42:17.197Z,99.90
2018-04-18T01:44:48.893Z,99.90
2018-04-18T01:47:19.775Z,99.90
2018-04-18T01:49:51.365Z,99.90
2018-04-18T01:52:22.247Z,99.90
2018-04-18T01:54:52.913Z,99.90
2018-04-18T01:57:23.613Z,99.90
2018-04-18T01:59:54.710Z,99.90
2018-04-18T02:02:25.401Z,99.90
2018-04-18T02:04:56.387Z,99.90
2018-04-18T02:07:27.174Z,99.90
2018-04-18T02:09:58.314Z,99.90
2018-04-18T02:12:29.076Z,99.90
2018-04-18T02:14:59.793Z,99.90
2018-04-18T02:17:30.914Z,99.90
2018-04-18T02:20:01.702Z,99.90
2018-04-18T02:22:32.599Z,99.90
2018-04-18T02:25:03.381Z,99.90
2018-04-18T02:27:34.095Z,99.90
2018-04-18T02:30:04.725Z,99.90
2018-04-18T02:32:35.569Z,99.90
2018-04-18T02:35:06.908Z,99.90
2018-04-18T02:37:37.618Z,99.90
2018-04-18T02:40:08.980Z,99.90
2018-04-18T02:42:39.890Z,99.90
2018-04-18T02:45:10.554Z,99.90
2018-04-18T02:47:41.244Z,99.90
2018-04-18T02:50:13.505Z,99.90
2018-04-18T02:52:44.138Z,99.90
2018-04-18T02:55:15.042Z,99.90
2018-04-18T02:57:45.734Z,99.90
2018-04-18T03:00:16.594Z,99.90
2018-04-18T03:02:47.866Z,99.90
2018-04-18T03:05:18.697Z,99.90
2018-04-18T03:07:49.403Z,99.90
2018-04-18T03:10:20.350Z,99.90
2018-04-18T03:12:51.343Z,99.90
2018-04-18T03:15:22.209Z,99.90
2018-04-18T03:17:54.470Z,99.90
2018-04-18T03:20:25.292Z,99.90
2018-04-18T03:22:56.742Z,99.90
2018-04-18T03:25:27.456Z,99.90
2018-04-18T03:27:58.312Z,99.90
2018-04-18T03:30:29.086Z,99.90
2018-04-18T03:32:59.843Z,99.90
2018-04-18T03:35:30.980Z,99.90
2018-04-18T03:38:01.844Z,99.90
2018-04-18T03:40:32.946Z,99.90
2018-04-18T03:43:04.313Z,99.90
2018-04-18T03:45:35.198Z,99.90
2018-04-18T03:48:06.729Z,99.90
2018-04-18T03:50:39.565Z,99.90
2018-04-18T03:53:10.687Z,99.90
2018-04-18T03:55:41.745Z,99.90
2018-04-18T03:58:12.409Z,99.90
2018-04-18T04:00:43.614Z,99.90
2018-04-18T04:03:15.062Z,99.90
2018-04-18T04:05:45.882Z,99.90
2018-04-18T04:08:16.558Z,99.90
2018-04-18T04:10:47.514Z,99.90
2018-04-18T04:13:18.439Z,99.90
2018-04-18T04:15:50.108Z,99.90
2018-04-18T04:18:31.557Z,99.90
2018-04-18T04:21:14.974Z,99.90
2018-04-18T04:24:55.490Z,99.90
2018-04-18T04:27:26.242Z,99.90
2018-04-18T04:29:58.506Z,99.90
2018-04-18T04:32:29.666Z,99.90
2018-04-18T04:35:00.554Z,99.90
2018-04-18T04:37:32.432Z,99.90
2018-04-18T04:40:03.278Z,99.90
2018-04-18T04:42:34.380Z,99.90
2018-04-18T04:49:44.451Z,99.90
2018-04-18T04:52:16.691Z,99.90
2018-04-18T04:54:47.873Z,99.90
2018-04-18T04:57:19.087Z,99.90
2018-04-18T04:59:50.625Z,99.90
2018-04-18T05:02:21.770Z,99.90
2018-04-18T05:04:52.826Z,99.90
2018-04-18T05:07:23.634Z,99.90
2018-04-18T05:09:54.475Z,99.90
2018-04-18T05:12:25.582Z,99.90
2018-04-18T05:14:56.701Z,99.90
2018-04-18T05:17:27.408Z,99.90
2018-04-18T05:19:58.252Z,99.90
2018-04-18T05:22:29.146Z,99.90
2018-04-18T05:25:00.406Z,99.90
2018-04-18T05:27:32.021Z,99.90
2018-04-18T05:30:03.079Z,99.90
2018-04-18T05:32:34.227Z,99.90
2018-04-18T05:35:04.751Z,99.90
2018-04-18T05:37:36.064Z,99.90
2018-04-18T05:40:07.326Z,99.90
2018-04-18T05:42:38.325Z,99.90
2018-04-18T05:45:09.038Z,99.90
2018-04-18T05:47:41.038Z,99.90
2018-04-18T05:50:11.918Z,99.90
2018-04-18T05:52:44.997Z,99.90
2018-04-18T05:55:16.420Z,99.90
2018-04-18T05:57:47.392Z,99.90
2018-04-18T06:00:18.258Z,99.90
2018-04-18T06:02:49.099Z,99.90
2018-04-18T06:05:20.130Z,99.90
2018-04-18T06:07:50.838Z,99.90
2018-04-18T06:10:21.807Z,99.90
2018-04-18T06:12:53.191Z,99.90
2018-04-18T06:15:24.146Z,99.90
2018-04-18T06:17:54.795Z,99.90
2018-04-18T06:20:26.419Z,99.90
2018-04-18T06:22:58.433Z,99.90
2018-04-18T06:25:29.621Z,99.90
2018-04-18T06:28:00.366Z,99.90
2018-04-18T06:30:31.191Z,99.90
2018-04-18T06:33:02.004Z,99.90
2018-04-18T06:35:33.079Z,99.90
2018-04-18T06:38:04.423Z,99.90
2018-04-18T06:40:35.419Z,99.90
2018-04-18T06:43:06.098Z,99.90
2018-04-18T06:45:37.241Z,99.90
2018-04-18T06:48:07.908Z,99.90
2018-04-18T06:50:39.367Z,99.90
2018-04-18T06:53:10.194Z,99.90
2018-04-18T06:55:41.964Z,99.90
2018-04-18T06:58:12.601Z,99.90
2018-04-18T07:00:44.000Z,99.90
2018-04-18T07:03:14.945Z,99.90
2018-04-18T07:05:45.776Z,99.90
2018-04-18T07:08:17.452Z,99.90
2018-04-18T07:10:48.786Z,99.90
2018-04-18T07:13:20.765Z,99.90
2018-04-18T07:15:51.682Z,99.90
2018-04-18T07:18:23.048Z,99.90
2018-04-18T07:20:53.985Z,99.90
2018-04-18T07:23:24.797Z,99.90
2018-04-18T07:25:55.890Z,99.90
2018-04-18T07:28:26.639Z,99.90
2018-04-18T07:30:57.564Z,99.90
2018-04-18T07:33:29.010Z,99.90
2018-04-18T07:36:01.073Z,99.90
2018-04-18T07:38:33.136Z,99.90
2018-04-18T07:41:05.441Z,99.90
2018-04-18T07:43:37.492Z,99.90
2018-04-18T07:46:08.831Z,99.90
2018-04-18T07:48:40.203Z,99.90
2018-04-18T07:51:11.385Z,99.90
2018-04-18T07:53:42.833Z,99.90
2018-04-18T07:56:31.181Z,99.90
2018-04-18T07:59:03.089Z,99.90
2018-04-18T08:01:34.702Z,99.90
2018-04-18T08:04:06.010Z,99.90
2018-04-18T08:06:37.021Z,99.90
2018-04-18T08:09:07.721Z,99.90
2018-04-18T08:11:38.558Z,99.90
2018-04-18T08:14:10.281Z,99.70
2018-04-18T08:16:42.811Z,99.90
2018-04-18T08:19:13.969Z,99.90
2018-04-18T08:21:45.310Z,99.50
2018-04-18T08:24:17.581Z,97.50
2018-04-18T08:28:00.432Z,96.70
2018-04-18T08:30:32.872Z,97.50
2018-04-18T08:33:07.368Z,97.50
2018-04-18T08:35:37.793Z,95.00
2018-04-18T08:38:09.140Z,94.90
2018-04-18T08:40:39.581Z,94.90
2018-04-18T08:43:26.398Z,96.60
2018-04-18T08:46:09.699Z,95.50
2018-04-18T08:48:40.171Z,97.20
2018-04-18T08:51:10.891Z,94.00
2018-04-18T08:53:44.168Z,93.30
2018-04-18T08:56:23.636Z,92.30
2018-04-18T08:59:03.263Z,90.10
2018-04-18T09:01:38.790Z,91.80
2018-04-18T09:04:12.602Z,90.80
2018-04-18T09:06:48.399Z,90.00
2018-04-18T09:09:22.795Z,90.50
2018-04-18T09:11:58.528Z,88.40
2018-04-18T09:14:35.533Z,87.90
2018-04-18T09:17:12.674Z,87.30
2018-04-18T09:19:52.897Z,86.20
2018-04-18T09:22:29.876Z,84.00
2018-04-18T09:25:04.762Z,91.20
2018-04-18T09:27:40.680Z,85.30
2018-04-18T09:30:12.929Z,86.10
2018-04-18T09:32:43.680Z,87.00
2018-04-18T09:35:17.952Z,82.90
2018-04-18T09:37:48.567Z,87.10
2018-04-18T09:40:19.281Z,76.70
2018-04-18T09:42:50.865Z,79.00
2018-04-18T09:45:21.582Z,79.00
2018-04-18T09:47:53.060Z,77.30
2018-04-18T09:50:23.659Z,77.30
2018-04-18T09:52:54.584Z,74.10
2018-04-18T09:55:25.097Z,78.00
2018-04-18T09:57:55.647Z,82.60
2018-04-18T10:00:30.899Z,76.00
2018-04-18T10:03:05.936Z,71.50
2018-04-18T10:05:37.225Z,74.80
2018-04-18T10:08:14.791Z,74.80
2018-04-18T10:10:45.425Z,72.70
2018-04-18T10:13:16.702Z,74.00
2018-04-18T10:15:47.321Z,74.00
2018-04-18T10:18:17.932Z,74.20
2018-04-18T10:20:49.269Z,76.40
2018-04-18T10:23:20.027Z,76.30
2018-04-18T10:25:51.479Z,70.00
2018-04-18T10:28:22.012Z,70.00
2018-04-18T10:30:52.533Z,68.00
2018-04-18T10:33:23.174Z,64.10
2018-04-18T10:35:53.645Z,68.50
2018-04-18T10:38:24.740Z,67.00
2018-04-18T10:40:55.480Z,68.90
2018-04-18T10:43:26.076Z,72.90
2018-04-18T10:45:56.524Z,65.10
2018-04-18T10:48:28.335Z,66.70
2018-04-18T10:50:58.804Z,68.20
2018-04-18T10:53:29.301Z,64.50
2018-04-18T10:55:59.976Z,64.20
2018-04-18T10:58:31.206Z,66.80
2018-04-18T11:01:01.715Z,66.70
2018-04-18T11:03:32.564Z,63.30
2018-04-18T11:06:04.408Z,70.00
2018-04-18T11:08:36.667Z,65.20
2018-04-18T11:11:07.278Z,65.10
2018-04-18T11:13:37.967Z,64.00
2018-04-18T11:16:08.461Z,72.10
2018-04-18T11:18:39.303Z,63.30
2018-04-18T11:21:12.625Z,62.80
2018-04-18T11:23:43.276Z,63.50
2018-04-18T11:26:13.877Z,68.90
2018-04-18T11:28:53.840Z,66.90
2018-04-18T11:31:24.629Z,67.20
2018-04-18T11:33:55.499Z,71.20
2018-04-18T11:36:26.562Z,62.60
2018-04-18T11:38:58.673Z,66.30
2018-04-18T11:41:30.436Z,60.20
2018-04-18T11:44:01.813Z,60.50
2018-04-18T11:46:32.642Z,60.50
2018-04-18T11:49:03.548Z,63.50
2018-04-18T11:51:35.476Z,61.10
2018-04-18T11:54:06.344Z,66.70
2018-04-18T11:56:37.820Z,67.50
2018-04-18T11:59:08.335Z,67.40
2018-04-18T12:01:41.182Z,66.60
2018-04-18T12:04:11.640Z,64.60
2018-04-18T12:06:42.137Z,62.80
2018-04-18T12:09:12.821Z,64.50
2018-04-18T12:11:43.352Z,67.70
2018-04-18T12:14:13.892Z,62.80
2018-04-18T12:16:46.797Z,60.20
2018-04-18T12:19:17.365Z,58.20
2018-04-18T12:21:47.795Z,61.60
2018-04-18T12:24:18.467Z,62.10
2018-04-18T12:26:48.898Z,58.80
2018-04-18T12:29:19.441Z,56.00
2018-04-18T12:31:50.017Z,57.70
2018-04-18T12:34:21.958Z,58.00
2018-04-18T12:36:56.214Z,59.60
2018-04-18T12:39:27.568Z,64.90
2018-04-18T12:41:59.234Z,57.90
2018-04-18T12:44:29.681Z,57.80
2018-04-18T12:47:01.018Z,55.60
2018-04-18T12:49:31.480Z,55.60
2018-04-18T12:52:02.153Z,54.20
2018-04-18T12:54:32.905Z,54.70
2018-04-18T12:57:04.391Z,55.90
2018-04-18T12:59:34.978Z,56.00
2018-04-18T13:02:05.681Z,54.50
2018-04-18T13:04:36.740Z,58.70
2018-04-18T13:07:07.624Z,56.00
2018-04-18T13:09:38.170Z,54.30
2018-04-18T13:12:08.856Z,54.80
2018-04-18T13:14:39.717Z,57.70
2018-04-18T13:17:10.984Z,55.90
2018-04-18T13:19:41.545Z,55.90
2018-04-18T13:22:12.375Z,55.30
2018-04-18T13:24:43.174Z,55.80
2018-04-18T13:27:14.721Z,51.60
2018-04-18T13:29:45.272Z,51.60
2018-04-18T13:32:15.942Z,49.90
2018-04-18T13:34:46.549Z,50.10
2018-04-18T13:37:17.177Z,47.70
2018-04-18T13:39:47.849Z,47.70
2018-04-18T13:42:18.462Z,49.30
2018-04-18T13:44:49.044Z,52.40
2018-04-18T13:47:20.584Z,48.30
2018-04-18T13:49:50.969Z,48.20
2018-04-18T13:52:21.449Z,50.40
2018-04-18T13:54:53.175Z,49.40
2018-04-18T13:57:23.687Z,49.40
2018-04-18T13:59:54.295Z,49.10
2018-04-18T14:02:24.793Z,51.80
2018-04-18T14:04:55.571Z,52.50
2018-04-18T14:07:26.192Z,53.20
2018-04-18T14:09:56.826Z,55.70
2018-04-18T14:12:27.328Z,55.40
2018-04-18T14:14:58.709Z,55.20
2018-04-18T14:17:29.480Z,55.10
2018-04-18T14:20:00.081Z,55.00
2018-04-18T14:22:30.563Z,57.10
2018-04-18T14:25:01.895Z,56.30
2018-04-18T14:27:33.196Z,55.10
2018-04-18T14:30:03.785Z,55.10
2018-04-18T14:32:41.516Z,57.00
2018-04-18T14:35:12.715Z,55.60
2018-04-18T14:37:43.185Z,55.60
2018-04-18T14:40:13.860Z,55.90
2018-04-18T14:42:44.516Z,55.50
2018-04-18T14:45:15.500Z,58.00
2018-04-18T14:47:46.802Z,55.60
2018-04-18T14:50:18.052Z,56.00
2018-04-18T14:52:48.572Z,56.00
2018-04-18T14:55:19.068Z,57.70
2018-04-18T14:57:50.171Z,54.30
2018-04-18T15:00:20.697Z,54.40
2018-04-18T15:02:51.169Z,55.30
2018-04-18T15:05:21.744Z,54.10
2018-04-18T15:07:52.249Z,58.50
2018-04-18T15:10:22.885Z,56.50
2018-04-18T15:12:53.504Z,54.10
2018-04-18T15:15:25.247Z,55.80
2018-04-18T15:17:56.483Z,54.90
2018-04-18T15:20:27.669Z,55.10
2018-04-18T15:23:00.551Z,55.10
2018-04-18T15:25:31.077Z,55.20
2018-04-18T15:28:01.765Z,55.10
2018-04-18T15:30:32.236Z,53.40
2018-04-18T15:33:02.880Z,53.90
2018-04-18T15:35:33.473Z,54.80
2018-04-18T15:38:05.101Z,53.20
2018-04-18T15:40:36.305Z,54.40
2018-04-18T15:43:06.765Z,54.40
2018-04-18T15:45:37.261Z,55.00
2018-04-18T15:48:07.729Z,55.70
2018-04-18T15:50:38.261Z,56.50
2018-04-18T15:53:09.328Z,55.60
2018-04-18T15:55:41.826Z,58.10
2018-04-18T15:58:13.426Z,56.60
2018-04-18T16:00:43.963Z,56.00
2018-04-18T16:03:16.668Z,56.10
2018-04-18T16:05:47.234Z,55.20
2018-04-18T16:08:17.890Z,57.00
2018-04-18T16:10:48.499Z,56.80
2018-04-18T16:13:18.928Z,55.80
2018-04-18T16:15:49.544Z,55.80
2018-04-18T16:18:22.042Z,57.90
2018-04-18T16:20:58.270Z,57.50
2018-04-18T16:23:33.268Z,56.90
2018-04-18T16:26:10.504Z,56.60
2018-04-18T16:28:47.603Z,56.50
2018-04-18T16:31:18.819Z,57.10
2018-04-18T16:33:49.256Z,58.00
2018-04-18T16:36:19.792Z,58.30
2018-04-18T16:38:50.324Z,59.30
2018-04-18T16:41:25.035Z,58.70
2018-04-18T16:43:55.611Z,59.50
2018-04-18T16:46:26.178Z,60.20
2018-04-18T16:48:56.795Z,61.10
2018-04-18T16:51:27.261Z,61.00
2018-04-18T16:54:02.524Z,62.30
2018-04-18T16:56:32.939Z,62.60
2018-04-18T16:59:03.372Z,62.60
2018-04-18T17:01:36.457Z,62.50
2018-04-18T17:04:06.946Z,63.20
2018-04-18T17:06:37.452Z,63.60
2018-04-18T17:09:08.199Z,62.20
2018-04-18T17:11:39.555Z,62.80
2018-04-18T17:14:10.237Z,62.80
2018-04-18T17:16:41.621Z,63.30
2018-04-18T17:19:12.893Z,63.00
2018-04-18T17:21:43.821Z,63.00
2018-04-18T17:24:15.878Z,63.10
2018-04-18T17:26:46.897Z,63.20
2018-04-18T17:29:19.649Z,63.60
2018-04-18T17:31:50.644Z,64.10
2018-04-18T17:34:21.985Z,64.10
2018-04-18T17:36:53.174Z,64.60
2018-04-18T17:39:24.228Z,65.10
2018-04-18T17:41:57.273Z,65.80
2018-04-18T17:44:28.467Z,65.70
2018-04-18T17:46:59.523Z,66.10
2018-04-18T17:49:30.571Z,66.90
2018-04-18T17:52:01.249Z,68.50
2018-04-18T17:54:32.674Z,68.70
2018-04-18T17:57:03.983Z,69.60
2018-04-18T17:59:34.558Z,69.30
2018-04-18T18:02:05.098Z,68.90
2018-04-18T18:04:39.509Z,69.70
2018-04-18T18:07:10.132Z,70.40
2018-04-18T18:09:40.582Z,71.00
2018-04-18T18:12:23.090Z,71.80
2018-04-18T18:14:54.671Z,73.10
2018-04-18T18:17:25.176Z,73.10
2018-04-18T18:19:55.697Z,74.20
2018-04-18T18:22:27.321Z,74.90
2018-04-18T18:24:58.397Z,75.70
2018-04-18T18:27:29.624Z,76.40
2018-04-18T18:30:00.166Z,77.20
2018-04-18T18:32:31.085Z,78.30
2018-04-18T18:35:02.022Z,79.10
2018-04-18T18:37:33.433Z,80.00
2018-04-18T18:40:05.106Z,80.50
2018-04-18T18:42:35.571Z,81.60
2018-04-18T18:45:07.001Z,81.90
2018-04-18T18:47:37.668Z,82.20
2018-04-18T18:50:08.348Z,82.90
2018-04-18T18:52:44.041Z,83.60
2018-04-18T18:55:15.396Z,84.70
2018-04-18T18:57:46.340Z,85.10
2018-04-18T19:00:16.775Z,85.70
2018-04-18T19:02:47.929Z,86.90
2018-04-18T19:05:20.579Z,88.40
2018-04-18T19:07:51.315Z,88.20
2018-04-18T19:10:28.128Z,88.90
2018-04-18T19:13:07.207Z,89.80
2018-04-18T19:15:41.864Z,90.30
2018-04-18T19:18:22.940Z,90.60
2018-04-18T19:20:58.693Z,90.60
2018-04-18T19:23:33.017Z,91.20
2018-04-18T19:26:09.084Z,91.20
2018-04-18T19:28:43.685Z,91.60
2018-04-18T19:31:17.594Z,91.80
2018-04-18T19:34:02.743Z,92.30
2018-04-18T19:36:36.392Z,92.60
2018-04-18T19:39:10.350Z,93.00
2018-04-18T19:41:48.971Z,93.20
2018-04-18T19:44:25.599Z,94.00
2018-04-18T19:46:56.691Z,94.00
2018-04-18T19:49:27.866Z,94.60
2018-04-18T19:51:58.464Z,94.60
2018-04-18T19:54:28.999Z,95.10
2018-04-18T19:57:02.529Z,95.50
2018-04-18T19:59:33.157Z,96.10
2018-04-18T20:02:04.616Z,96.60
2018-04-18T20:04:42.030Z,96.80
2018-04-18T20:07:14.255Z,96.80
2018-04-18T20:09:44.776Z,97.10
2018-04-18T20:12:16.713Z,97.70
2018-04-18T20:14:47.166Z,97.90
2018-04-18T20:17:17.612Z,98.10
2018-04-18T20:19:48.426Z,98.30
2018-04-18T20:22:18.848Z,98.30
2018-04-18T20:27:41.261Z,98.90
2018-04-18T20:30:12.612Z,99.30
2018-04-18T20:32:43.680Z,99.90
2018-04-18T20:35:14.124Z,99.90
2018-04-18T20:37:44.606Z,99.90
2018-04-18T20:40:15.800Z,99.90
2018-04-18T20:42:56.536Z,99.90
2018-04-18T20:45:27.507Z,99.90
2018-04-18T20:47:58.314Z,99.90
2018-04-18T20:50:29.328Z,99.90
2018-04-18T20:52:59.848Z,99.90
2018-04-18T20:55:30.331Z,99.90
2018-04-18T20:58:04.198Z,99.90
2018-04-18T21:00:34.639Z,99.90
2018-04-18T21:03:06.038Z,99.90
2018-04-18T21:05:36.717Z,99.90
2018-04-18T21:11:01.727Z,99.90
2018-04-18T21:13:32.317Z,99.90
2018-04-18T21:16:02.792Z,99.90
2018-04-18T21:18:33.420Z,99.90
2018-04-18T21:21:04.755Z,99.90
2018-04-18T21:23:36.673Z,99.90
2018-04-18T21:26:07.813Z,99.90
2018-04-18T21:28:38.211Z,99.90
2018-04-18T21:31:08.714Z,99.90
2018-04-18T21:33:47.881Z,99.90
2018-04-18T21:36:18.385Z,99.90
2018-04-18T21:38:49.568Z,99.90
2018-04-18T21:41:20.160Z,99.90
2018-04-18T21:43:51.308Z,99.90
2018-04-18T21:46:21.848Z,99.90
2018-04-18T21:48:53.040Z,99.90
2018-04-18T21:51:23.503Z,99.90
2018-04-18T21:53:53.895Z,99.90
2018-04-18T21:56:24.504Z,99.90
2018-04-18T21:58:55.056Z,99.90
2018-04-18T22:01:26.184Z,99.90
2018-04-18T22:03:56.571Z,99.90
2018-04-18T22:06:27.149Z,99.90
2018-04-18T22:08:58.425Z,99.90
2018-04-18T22:11:28.920Z,99.90
2018-04-18T22:14:07.382Z,99.90
2018-04-18T22:16:38.684Z,99.90
2018-04-18T22:19:09.086Z,99.90
2018-04-18T22:21:39.708Z,99.90
2018-04-18T22:24:10.267Z,99.90
2018-04-18T22:26:40.705Z,99.90
2018-04-18T22:29:17.648Z,99.90
2018-04-18T22:31:48.250Z,99.90
2018-04-18T22:34:18.681Z,99.90
2018-04-18T22:36:49.188Z,99.90
2018-04-18T22:39:19.774Z,99.90
2018-04-18T22:41:50.584Z,99.90
2018-04-18T22:44:28.290Z,99.90
2018-04-18T22:46:58.704Z,99.90
2018-04-18T22:49:29.116Z,99.90
2018-04-18T22:51:59.572Z,99.90
2018-04-18T22:54:29.978Z,99.90
2018-04-18T22:57:00.678Z,99.90
2018-04-18T22:59:36.832Z,99.90
2018-04-18T23:02:07.398Z,99.90
2018-04-18T23:04:38.281Z,99.90
2018-04-18T23:07:09.096Z,99.90
2018-04-18T23:12:40.605Z,99.90
2018-04-18T23:15:10.951Z,99.90
2018-04-18T23:17:41.321Z,99.90
2018-04-18T23:20:13.037Z,99.90
2018-04-18T23:22:43.855Z,99.90
2018-04-18T23:25:14.337Z,99.90
2018-04-18T23:27:44.925Z,99.90
2018-04-18T23:30:15.764Z,99.90
2018-04-18T23:32:46.296Z,99.90
2018-04-18T23:35:16.620Z,99.90
2018-04-18T23:37:47.097Z,99.90
2018-04-18T23:40:17.536Z,99.90
2018-04-18T23:42:47.910Z,99.90
2018-04-18T23:45:18.630Z,99.90
2018-04-18T23:47:48.984Z,99.90
2018-04-18T23:50:35.853Z,99.90
2018-04-18T23:53:06.220Z,99.90
2018-04-18T23:55:36.684Z,99.90
2018-04-18T23:58:06.999Z,99.90
